sensor_id;sensor_type;location;lat;lon;timestamp;temperature;humidity
5554;DHT22;2800;49.528;8.666;2023-07-20T00:00:27;20.80;99.90
5554;DHT22;2800;49.528;8.666;2023-07-20T00:03:10;20.70;99.90
5554;DHT22;2800;49.528;8.666;2023-07-20T00:05:35;20.70;99.90
5554;DHT22;2800;49.528;8.666;2023-07-20T00:08:01;20.60;99.90
5554;DHT22;2800;49.528;8.666;2023-07-20T00:10:26;20.60;99.90
5554;DHT22;2800;49.528;8.666;2023-07-20T00:12:52;20.50;99.90
5554;DHT22;2800;49.528;8.666;2023-07-20T00:15:17;20.50;99.90
5554;DHT22;2800;49.528;8.666;2023-07-20T00:17:43;20.50;99.90
5554;DHT22;2800;49.528;8.666;2023-07-20T00:20:10;20.50;99.90
5554;DHT22;2800;49.528;8.666;2023-07-20T00:22:36;20.40;99.90
5554;DHT22;2800;49.528;8.666;2023-07-20T00:25:02;20.40;99.20
5554;DHT22;2800;49.528;8.666;2023-07-20T00:27:28;20.40;99.90
5554;DHT22;2800;49.528;8.666;2023-07-20T00:29:53;20.50;99.90
5554;DHT22;2800;49.528;8.666;2023-07-20T00:32:19;20.30;99.90
5554;DHT22;2800;49.528;8.666;2023-07-20T00:34:44;20.30;99.90
5554;DHT22;2800;49.528;8.666;2023-07-20T00:37:10;20.20;99.90
5554;DHT22;2800;49.528;8.666;2023-07-20T00:39:35;20.20;99.90
5554;DHT22;2800;49.528;8.666;2023-07-20T00:42:01;20.20;98.90
5554;DHT22;2800;49.528;8.666;2023-07-20T00:44:27;20.20;99.60
5554;DHT22;2800;49.528;8.666;2023-07-20T00:46:52;20.20;99.90
5554;DHT22;2800;49.528;8.666;2023-07-20T00:49:18;20.10;99.90
5554;DHT22;2800;49.528;8.666;2023-07-20T00:51:46;20.10;99.90
5554;DHT22;2800;49.528;8.666;2023-07-20T00:54:12;20.10;99.50
5554;DHT22;2800;49.528;8.666;2023-07-20T00:56:39;20.10;98.20
5554;DHT22;2800;49.528;8.666;2023-07-20T00:59:05;20.10;99.50
5554;DHT22;2800;49.528;8.666;2023-07-20T01:01:30;20.00;99.90
5554;DHT22;2800;49.528;8.666;2023-07-20T01:03:56;20.00;99.90
5554;DHT22;2800;49.528;8.666;2023-07-20T01:09:22;19.90;99.90
5554;DHT22;2800;49.528;8.666;2023-07-20T01:12:13;19.90;99.90
5554;DHT22;2800;49.528;8.666;2023-07-20T01:14:42;19.80;99.90
5554;DHT22;2800;49.528;8.666;2023-07-20T01:17:07;19.80;99.90
5554;DHT22;2800;49.528;8.666;2023-07-20T01:19:33;19.70;99.90
5554;DHT22;2800;49.528;8.666;2023-07-20T01:22:33;19.70;99.90
5554;DHT22;2800;49.528;8.666;2023-07-20T01:33:21;19.40;99.90
5554;DHT22;2800;49.528;8.666;2023-07-20T01:35:53;19.30;99.90
5554;DHT22;2800;49.528;8.666;2023-07-20T01:38:20;19.30;99.90
5554;DHT22;2800;49.528;8.666;2023-07-20T01:40:46;19.20;99.90
5554;DHT22;2800;49.528;8.666;2023-07-20T01:43:12;19.20;99.90
5554;DHT22;2800;49.528;8.666;2023-07-20T01:45:38;19.10;99.90
5554;DHT22;2800;49.528;8.666;2023-07-20T01:48:05;19.10;99.90
5554;DHT22;2800;49.528;8.666;2023-07-20T01:50:30;19.10;99.90
5554;DHT22;2800;49.528;8.666;2023-07-20T01:52:56;19.00;99.90
5554;DHT22;2800;49.528;8.666;2023-07-20T01:55:21;18.90;99.90
5554;DHT22;2800;49.528;8.666;2023-07-20T01:57:47;18.60;99.90
5554;DHT22;2800;49.528;8.666;2023-07-20T02:00:13;18.30;99.90
5554;DHT22;2800;49.528;8.666;2023-07-20T02:02:38;17.90;99.90
5554;DHT22;2800;49.528;8.666;2023-07-20T02:05:04;17.60;99.90
5554;DHT22;2800;49.528;8.666;2023-07-20T02:07:29;17.40;99.90
5554;DHT22;2800;49.528;8.666;2023-07-20T02:09:55;17.30;99.90
5554;DHT22;2800;49.528;8.666;2023-07-20T02:12:20;17.20;99.90
5554;DHT22;2800;49.528;8.666;2023-07-20T02:14:46;17.10;99.90
5554;DHT22;2800;49.528;8.666;2023-07-20T02:17:13;17.10;99.90
5554;DHT22;2800;49.528;8.666;2023-07-20T02:19:40;17.10;99.90
5554;DHT22;2800;49.528;8.666;2023-07-20T02:22:06;17.20;99.90
5554;DHT22;2800;49.528;8.666;2023-07-20T02:24:33;17.30;99.90
5554;DHT22;2800;49.528;8.666;2023-07-20T02:26:58;17.30;99.90
5554;DHT22;2800;49.528;8.666;2023-07-20T02:29:24;17.20;99.90
5554;DHT22;2800;49.528;8.666;2023-07-20T02:31:49;17.00;99.90
5554;DHT22;2800;49.528;8.666;2023-07-20T02:34:15;17.00;99.90
5554;DHT22;2800;49.528;8.666;2023-07-20T02:36:41;16.80;99.90
5554;DHT22;2800;49.528;8.666;2023-07-20T02:39:08;16.60;99.90
5554;DHT22;2800;49.528;8.666;2023-07-20T02:41:34;16.70;99.90
5554;DHT22;2800;49.528;8.666;2023-07-20T02:44:00;16.70;99.90
5554;DHT22;2800;49.528;8.666;2023-07-20T02:46:26;16.70;99.90
5554;DHT22;2800;49.528;8.666;2023-07-20T02:48:52;16.80;99.90
5554;DHT22;2800;49.528;8.666;2023-07-20T02:51:17;16.70;99.90
5554;DHT22;2800;49.528;8.666;2023-07-20T02:53:43;16.50;99.90
5554;DHT22;2800;49.528;8.666;2023-07-20T02:56:09;16.40;99.90
5554;DHT22;2800;49.528;8.666;2023-07-20T02:58:34;16.20;99.90
5554;DHT22;2800;49.528;8.666;2023-07-20T03:01:04;16.10;99.90
5554;DHT22;2800;49.528;8.666;2023-07-20T03:03:29;16.00;99.90
5554;DHT22;2800;49.528;8.666;2023-07-20T03:05:56;15.90;99.90
5554;DHT22;2800;49.528;8.666;2023-07-20T03:08:24;15.90;99.90
5554;DHT22;2800;49.528;8.666;2023-07-20T03:10:50;15.90;99.90
5554;DHT22;2800;49.528;8.666;2023-07-20T03:13:15;15.80;99.90
5554;DHT22;2800;49.528;8.666;2023-07-20T03:15:41;15.80;99.90
5554;DHT22;2800;49.528;8.666;2023-07-20T03:18:07;15.80;99.90
5554;DHT22;2800;49.528;8.666;2023-07-20T03:20:32;15.90;99.90
5554;DHT22;2800;49.528;8.666;2023-07-20T03:22:58;15.90;99.90
5554;DHT22;2800;49.528;8.666;2023-07-20T03:25:23;16.00;99.90
5554;DHT22;2800;49.528;8.666;2023-07-20T03:27:49;16.00;99.90
5554;DHT22;2800;49.528;8.666;2023-07-20T03:30:14;16.00;99.90
5554;DHT22;2800;49.528;8.666;2023-07-20T03:32:40;15.90;99.90
5554;DHT22;2800;49.528;8.666;2023-07-20T03:35:06;15.60;99.90
5554;DHT22;2800;49.528;8.666;2023-07-20T03:37:32;15.60;99.90
5554;DHT22;2800;49.528;8.666;2023-07-20T03:39:57;15.40;99.90
5554;DHT22;2800;49.528;8.666;2023-07-20T03:42:23;15.40;99.90
5554;DHT22;2800;49.528;8.666;2023-07-20T03:44:48;15.40;99.90
5554;DHT22;2800;49.528;8.666;2023-07-20T03:47:14;15.30;99.90
5554;DHT22;2800;49.528;8.666;2023-07-20T03:49:39;15.20;99.90
5554;DHT22;2800;49.528;8.666;2023-07-20T03:52:05;15.10;99.90
5554;DHT22;2800;49.528;8.666;2023-07-20T03:54:31;15.10;99.90
5554;DHT22;2800;49.528;8.666;2023-07-20T03:56:56;15.10;99.90
5554;DHT22;2800;49.528;8.666;2023-07-20T03:59:22;15.00;99.90
5554;DHT22;2800;49.528;8.666;2023-07-20T04:01:47;15.20;99.90
5554;DHT22;2800;49.528;8.666;2023-07-20T04:04:16;15.30;99.90
5554;DHT22;2800;49.528;8.666;2023-07-20T04:06:41;15.40;99.90
5554;DHT22;2800;49.528;8.666;2023-07-20T04:09:12;15.50;99.90
5554;DHT22;2800;49.528;8.666;2023-07-20T04:11:37;15.40;99.90
5554;DHT22;2800;49.528;8.666;2023-07-20T04:14:03;15.40;99.90
5554;DHT22;2800;49.528;8.666;2023-07-20T04:16:29;15.40;99.90
5554;DHT22;2800;49.528;8.666;2023-07-20T04:18:55;15.40;99.90
5554;DHT22;2800;49.528;8.666;2023-07-20T04:21:22;15.40;99.90
5554;DHT22;2800;49.528;8.666;2023-07-20T04:23:47;15.40;99.90
5554;DHT22;2800;49.528;8.666;2023-07-20T04:26:13;15.60;99.90
5554;DHT22;2800;49.528;8.666;2023-07-20T04:28:40;15.60;99.90
5554;DHT22;2800;49.528;8.666;2023-07-20T04:31:15;15.60;99.90
5554;DHT22;2800;49.528;8.666;2023-07-20T04:33:40;15.80;99.90
5554;DHT22;2800;49.528;8.666;2023-07-20T04:36:06;16.00;99.90
5554;DHT22;2800;49.528;8.666;2023-07-20T04:38:33;16.00;99.90
5554;DHT22;2800;49.528;8.666;2023-07-20T04:40:58;16.00;99.90
5554;DHT22;2800;49.528;8.666;2023-07-20T04:43:24;16.10;99.90
5554;DHT22;2800;49.528;8.666;2023-07-20T04:45:49;16.20;99.90
5554;DHT22;2800;49.528;8.666;2023-07-20T04:48:16;16.30;99.90
5554;DHT22;2800;49.528;8.666;2023-07-20T04:50:44;16.30;99.90
5554;DHT22;2800;49.528;8.666;2023-07-20T04:53:10;16.40;99.90
5554;DHT22;2800;49.528;8.666;2023-07-20T04:55:37;16.50;99.90
5554;DHT22;2800;49.528;8.666;2023-07-20T04:58:03;16.50;99.90
5554;DHT22;2800;49.528;8.666;2023-07-20T05:00:38;16.60;99.90
5554;DHT22;2800;49.528;8.666;2023-07-20T05:03:03;16.60;99.90
5554;DHT22;2800;49.528;8.666;2023-07-20T05:05:30;16.60;99.90
5554;DHT22;2800;49.528;8.666;2023-07-20T05:07:56;16.70;99.90
5554;DHT22;2800;49.528;8.666;2023-07-20T05:10:21;16.80;99.90
5554;DHT22;2800;49.528;8.666;2023-07-20T05:12:47;16.90;99.90
5554;DHT22;2800;49.528;8.666;2023-07-20T05:15:12;17.00;99.90
5554;DHT22;2800;49.528;8.666;2023-07-20T05:17:38;17.10;99.90
5554;DHT22;2800;49.528;8.666;2023-07-20T05:20:04;17.20;99.90
5554;DHT22;2800;49.528;8.666;2023-07-20T05:22:30;17.20;99.90
5554;DHT22;2800;49.528;8.666;2023-07-20T05:24:56;17.20;99.90
5554;DHT22;2800;49.528;8.666;2023-07-20T05:27:21;17.30;99.90
5554;DHT22;2800;49.528;8.666;2023-07-20T05:29:47;17.30;99.90
5554;DHT22;2800;49.528;8.666;2023-07-20T05:32:13;17.40;99.90
5554;DHT22;2800;49.528;8.666;2023-07-20T05:34:39;17.50;99.90
5554;DHT22;2800;49.528;8.666;2023-07-20T05:37:05;17.50;99.90
5554;DHT22;2800;49.528;8.666;2023-07-20T05:39:32;17.60;99.90
5554;DHT22;2800;49.528;8.666;2023-07-20T05:41:58;17.70;99.90
5554;DHT22;2800;49.528;8.666;2023-07-20T05:44:23;17.70;99.90
5554;DHT22;2800;49.528;8.666;2023-07-20T05:46:49;17.70;99.90
5554;DHT22;2800;49.528;8.666;2023-07-20T05:49:14;17.80;99.90
5554;DHT22;2800;49.528;8.666;2023-07-20T05:51:40;17.90;99.90
5554;DHT22;2800;49.528;8.666;2023-07-20T05:54:05;18.00;99.90
5554;DHT22;2800;49.528;8.666;2023-07-20T05:56:32;18.20;99.90
5554;DHT22;2800;49.528;8.666;2023-07-20T05:58:57;18.30;99.90
5554;DHT22;2800;49.528;8.666;2023-07-20T06:01:23;18.40;99.90
5554;DHT22;2800;49.528;8.666;2023-07-20T06:03:48;18.60;99.90
5554;DHT22;2800;49.528;8.666;2023-07-20T06:06:14;18.60;99.90
5554;DHT22;2800;49.528;8.666;2023-07-20T06:08:40;18.40;99.90
5554;DHT22;2800;49.528;8.666;2023-07-20T06:11:05;18.50;99.90
5554;DHT22;2800;49.528;8.666;2023-07-20T06:13:31;18.50;99.90
5554;DHT22;2800;49.528;8.666;2023-07-20T06:15:56;18.70;99.90
5554;DHT22;2800;49.528;8.666;2023-07-20T06:18:25;18.80;99.90
5554;DHT22;2800;49.528;8.666;2023-07-20T06:20:51;18.80;99.90
5554;DHT22;2800;49.528;8.666;2023-07-20T06:23:20;18.90;99.90
5554;DHT22;2800;49.528;8.666;2023-07-20T06:25:45;19.00;99.90
5554;DHT22;2800;49.528;8.666;2023-07-20T06:28:11;19.10;99.90
5554;DHT22;2800;49.528;8.666;2023-07-20T06:30:37;19.10;99.90
5554;DHT22;2800;49.528;8.666;2023-07-20T06:33:02;18.70;99.90
5554;DHT22;2800;49.528;8.666;2023-07-20T06:35:28;18.80;99.90
5554;DHT22;2800;49.528;8.666;2023-07-20T06:37:53;18.80;99.90
5554;DHT22;2800;49.528;8.666;2023-07-20T06:40:20;18.90;99.90
5554;DHT22;2800;49.528;8.666;2023-07-20T06:42:46;19.10;99.90
5554;DHT22;2800;49.528;8.666;2023-07-20T06:45:12;19.50;99.90
5554;DHT22;2800;49.528;8.666;2023-07-20T06:47:39;19.90;99.90
5554;DHT22;2800;49.528;8.666;2023-07-20T06:50:06;20.00;99.90
5554;DHT22;2800;49.528;8.666;2023-07-20T06:52:32;20.00;99.90
5554;DHT22;2800;49.528;8.666;2023-07-20T06:54:57;20.30;99.90
5554;DHT22;2800;49.528;8.666;2023-07-20T06:57:23;20.40;99.90
5554;DHT22;2800;49.528;8.666;2023-07-20T06:59:48;20.70;99.90
5554;DHT22;2800;49.528;8.666;2023-07-20T07:02:14;20.80;99.90
5554;DHT22;2800;49.528;8.666;2023-07-20T07:04:40;20.60;99.90
5554;DHT22;2800;49.528;8.666;2023-07-20T07:07:05;20.70;99.90
5554;DHT22;2800;49.528;8.666;2023-07-20T07:09:31;20.50;99.90
5554;DHT22;2800;49.528;8.666;2023-07-20T07:11:56;20.50;99.90
5554;DHT22;2800;49.528;8.666;2023-07-20T07:14:22;21.00;99.90
5554;DHT22;2800;49.528;8.666;2023-07-20T07:16:48;21.20;99.90
5554;DHT22;2800;49.528;8.666;2023-07-20T07:19:13;21.20;99.90
5554;DHT22;2800;49.528;8.666;2023-07-20T07:21:39;21.00;99.90
5554;DHT22;2800;49.528;8.666;2023-07-20T07:24:05;21.20;99.90
5554;DHT22;2800;49.528;8.666;2023-07-20T07:26:32;21.10;99.90
5554;DHT22;2800;49.528;8.666;2023-07-20T07:28:58;21.50;99.90
5554;DHT22;2800;49.528;8.666;2023-07-20T07:31:25;21.60;99.90
5554;DHT22;2800;49.528;8.666;2023-07-20T07:33:50;21.80;99.90
5554;DHT22;2800;49.528;8.666;2023-07-20T07:36:16;22.00;99.90
5554;DHT22;2800;49.528;8.666;2023-07-20T07:38:41;21.90;99.90
5554;DHT22;2800;49.528;8.666;2023-07-20T07:41:08;22.00;99.90
5554;DHT22;2800;49.528;8.666;2023-07-20T07:43:33;22.00;99.90
5554;DHT22;2800;49.528;8.666;2023-07-20T07:59:32;22.00;99.90
5554;DHT22;2800;49.528;8.666;2023-07-20T08:02:02;21.50;99.90
5554;DHT22;2800;49.528;8.666;2023-07-20T08:04:28;21.40;99.90
5554;DHT22;2800;49.528;8.666;2023-07-20T08:06:53;21.40;99.90
5554;DHT22;2800;49.528;8.666;2023-07-20T08:09:19;21.40;99.90
5554;DHT22;2800;49.528;8.666;2023-07-20T08:11:44;22.10;99.90
5554;DHT22;2800;49.528;8.666;2023-07-20T08:14:10;22.20;99.90
5554;DHT22;2800;49.528;8.666;2023-07-20T08:16:35;22.50;99.90
5554;DHT22;2800;49.528;8.666;2023-07-20T08:19:01;23.20;99.90
5554;DHT22;2800;49.528;8.666;2023-07-20T08:21:27;22.90;99.90
5554;DHT22;2800;49.528;8.666;2023-07-20T08:23:53;22.30;99.90
5554;DHT22;2800;49.528;8.666;2023-07-20T08:26:18;22.20;99.90
5554;DHT22;2800;49.528;8.666;2023-07-20T08:28:47;22.40;99.90
5554;DHT22;2800;49.528;8.666;2023-07-20T08:31:13;22.80;99.90
5554;DHT22;2800;49.528;8.666;2023-07-20T08:33:39;22.40;99.90
5554;DHT22;2800;49.528;8.666;2023-07-20T08:36:05;22.20;99.90
5554;DHT22;2800;49.528;8.666;2023-07-20T08:38:31;22.20;99.90
5554;DHT22;2800;49.528;8.666;2023-07-20T08:40:57;22.20;99.90
5554;DHT22;2800;49.528;8.666;2023-07-20T08:43:27;22.10;99.90
5554;DHT22;2800;49.528;8.666;2023-07-20T08:45:54;22.20;99.90
5554;DHT22;2800;49.528;8.666;2023-07-20T08:48:23;22.40;99.90
5554;DHT22;2800;49.528;8.666;2023-07-20T08:50:52;23.00;99.90
5554;DHT22;2800;49.528;8.666;2023-07-20T08:53:20;23.90;99.90
5554;DHT22;2800;49.528;8.666;2023-07-20T08:55:46;24.70;99.90
5554;DHT22;2800;49.528;8.666;2023-07-20T08:58:13;25.20;99.90
5554;DHT22;2800;49.528;8.666;2023-07-20T09:00:41;25.40;99.90
5554;DHT22;2800;49.528;8.666;2023-07-20T09:03:06;25.50;99.90
5554;DHT22;2800;49.528;8.666;2023-07-20T09:05:33;25.00;99.90
5554;DHT22;2800;49.528;8.666;2023-07-20T09:08:00;24.40;99.90
5554;DHT22;2800;49.528;8.666;2023-07-20T09:10:28;24.70;99.90
5554;DHT22;2800;49.528;8.666;2023-07-20T09:12:53;24.80;99.90
5554;DHT22;2800;49.528;8.666;2023-07-20T09:15:21;24.80;99.90
5554;DHT22;2800;49.528;8.666;2023-07-20T09:17:50;25.20;99.90
5554;DHT22;2800;49.528;8.666;2023-07-20T09:20:17;25.50;99.90
5554;DHT22;2800;49.528;8.666;2023-07-20T09:22:44;25.20;99.90
5554;DHT22;2800;49.528;8.666;2023-07-20T09:25:14;25.10;99.90
5554;DHT22;2800;49.528;8.666;2023-07-20T09:27:42;24.90;99.90
5554;DHT22;2800;49.528;8.666;2023-07-20T09:30:08;24.70;99.90
5554;DHT22;2800;49.528;8.666;2023-07-20T09:35:28;25.10;99.90
5554;DHT22;2800;49.528;8.666;2023-07-20T09:38:01;25.30;99.90
5554;DHT22;2800;49.528;8.666;2023-07-20T09:40:27;25.10;99.90
5554;DHT22;2800;49.528;8.666;2023-07-20T09:42:53;24.90;99.90
5554;DHT22;2800;49.528;8.666;2023-07-20T09:45:35;24.50;99.90
5554;DHT22;2800;49.528;8.666;2023-07-20T09:48:05;24.30;99.90
5554;DHT22;2800;49.528;8.666;2023-07-20T09:50:32;23.60;99.90
5554;DHT22;2800;49.528;8.666;2023-07-20T09:52:58;24.60;99.90
5554;DHT22;2800;49.528;8.666;2023-07-20T09:55:26;25.80;99.90
5554;DHT22;2800;49.528;8.666;2023-07-20T09:57:52;26.70;99.90
5554;DHT22;2800;49.528;8.666;2023-07-20T10:00:19;25.90;99.90
5554;DHT22;2800;49.528;8.666;2023-07-20T10:02:46;25.80;99.90
5554;DHT22;2800;49.528;8.666;2023-07-20T10:05:13;26.20;99.90
5554;DHT22;2800;49.528;8.666;2023-07-20T10:07:49;26.90;99.90
5554;DHT22;2800;49.528;8.666;2023-07-20T10:10:17;27.00;99.90
5554;DHT22;2800;49.528;8.666;2023-07-20T10:12:44;26.50;99.90
5554;DHT22;2800;49.528;8.666;2023-07-20T10:15:32;26.10;99.90
5554;DHT22;2800;49.528;8.666;2023-07-20T10:18:06;25.50;99.90
5554;DHT22;2800;49.528;8.666;2023-07-20T10:20:36;25.50;99.90
5554;DHT22;2800;49.528;8.666;2023-07-20T10:23:04;25.10;99.90
5554;DHT22;2800;49.528;8.666;2023-07-20T10:25:31;24.20;99.90
5554;DHT22;2800;49.528;8.666;2023-07-20T10:27:58;23.10;99.90
5554;DHT22;2800;49.528;8.666;2023-07-20T10:30:25;23.10;99.90
5554;DHT22;2800;49.528;8.666;2023-07-20T10:32:51;23.50;99.90
5554;DHT22;2800;49.528;8.666;2023-07-20T10:35:18;24.60;99.90
5554;DHT22;2800;49.528;8.666;2023-07-20T10:42:50;26.80;99.90
5554;DHT22;2800;49.528;8.666;2023-07-20T10:45:17;26.70;99.90
5554;DHT22;2800;49.528;8.666;2023-07-20T10:47:46;27.10;99.90
5554;DHT22;2800;49.528;8.666;2023-07-20T10:50:12;26.60;99.90
5554;DHT22;2800;49.528;8.666;2023-07-20T10:52:41;26.80;99.90
5554;DHT22;2800;49.528;8.666;2023-07-20T10:55:16;27.10;99.90
5554;DHT22;2800;49.528;8.666;2023-07-20T10:57:42;26.30;99.90
5554;DHT22;2800;49.528;8.666;2023-07-20T11:00:14;25.30;99.90
5554;DHT22;2800;49.528;8.666;2023-07-20T11:02:47;25.40;99.90
5554;DHT22;2800;49.528;8.666;2023-07-20T11:05:35;26.60;99.90
5554;DHT22;2800;49.528;8.666;2023-07-20T11:08:11;27.50;99.90
5554;DHT22;2800;49.528;8.666;2023-07-20T11:10:37;27.40;99.90
5554;DHT22;2800;49.528;8.666;2023-07-20T11:15:45;26.70;99.90
5554;DHT22;2800;49.528;8.666;2023-07-20T11:18:12;26.80;99.90
5554;DHT22;2800;49.528;8.666;2023-07-20T11:20:38;26.00;99.90
5554;DHT22;2800;49.528;8.666;2023-07-20T11:23:04;26.00;99.90
5554;DHT22;2800;49.528;8.666;2023-07-20T11:25:39;26.40;99.90
5554;DHT22;2800;49.528;8.666;2023-07-20T11:28:09;26.40;99.90
5554;DHT22;2800;49.528;8.666;2023-07-20T11:30:36;26.80;99.90
5554;DHT22;2800;49.528;8.666;2023-07-20T11:33:02;27.70;99.90
5554;DHT22;2800;49.528;8.666;2023-07-20T11:35:27;28.80;99.90
5554;DHT22;2800;49.528;8.666;2023-07-20T11:37:54;29.30;99.90
5554;DHT22;2800;49.528;8.666;2023-07-20T11:40:20;29.70;99.90
5554;DHT22;2800;49.528;8.666;2023-07-20T11:42:45;29.10;99.90
5554;DHT22;2800;49.528;8.666;2023-07-20T11:45:11;29.00;99.90
5554;DHT22;2800;49.528;8.666;2023-07-20T11:47:40;29.80;99.90
5554;DHT22;2800;49.528;8.666;2023-07-20T11:50:07;30.30;99.90
5554;DHT22;2800;49.528;8.666;2023-07-20T11:52:33;30.20;99.90
5554;DHT22;2800;49.528;8.666;2023-07-20T11:54:59;28.00;99.90
5554;DHT22;2800;49.528;8.666;2023-07-20T11:57:25;26.60;99.90
5554;DHT22;2800;49.528;8.666;2023-07-20T11:59:58;26.90;99.90
5554;DHT22;2800;49.528;8.666;2023-07-20T12:02:29;26.90;99.90
5554;DHT22;2800;49.528;8.666;2023-07-20T12:04:55;27.10;99.90
5554;DHT22;2800;49.528;8.666;2023-07-20T12:07:21;27.40;99.90
5554;DHT22;2800;49.528;8.666;2023-07-20T12:10:07;27.30;99.90
5554;DHT22;2800;49.528;8.666;2023-07-20T12:12:43;27.80;99.90
5554;DHT22;2800;49.528;8.666;2023-07-20T12:15:23;27.10;99.90
5554;DHT22;2800;49.528;8.666;2023-07-20T12:17:53;27.00;99.90
5554;DHT22;2800;49.528;8.666;2023-07-20T12:20:29;27.00;99.90
5554;DHT22;2800;49.528;8.666;2023-07-20T12:22:58;27.00;99.90
5554;DHT22;2800;49.528;8.666;2023-07-20T12:25:44;26.90;99.90
5554;DHT22;2800;49.528;8.666;2023-07-20T12:28:16;26.40;99.90
5554;DHT22;2800;49.528;8.666;2023-07-20T12:30:43;26.30;99.90
5554;DHT22;2800;49.528;8.666;2023-07-20T12:33:13;26.00;99.90
5554;DHT22;2800;49.528;8.666;2023-07-20T12:35:41;25.80;99.90
5554;DHT22;2800;49.528;8.666;2023-07-20T12:38:06;25.90;99.90
5554;DHT22;2800;49.528;8.666;2023-07-20T12:40:33;26.20;99.90
5554;DHT22;2800;49.528;8.666;2023-07-20T12:42:59;26.30;99.90
5554;DHT22;2800;49.528;8.666;2023-07-20T12:45:24;27.00;99.90
5554;DHT22;2800;49.528;8.666;2023-07-20T12:47:50;27.10;99.90
5554;DHT22;2800;49.528;8.666;2023-07-20T12:50:15;27.20;99.90
5554;DHT22;2800;49.528;8.666;2023-07-20T12:52:41;27.60;99.90
5554;DHT22;2800;49.528;8.666;2023-07-20T12:55:08;27.50;99.90
5554;DHT22;2800;49.528;8.666;2023-07-20T12:57:37;27.70;99.90
5554;DHT22;2800;49.528;8.666;2023-07-20T13:00:05;27.90;99.90
5554;DHT22;2800;49.528;8.666;2023-07-20T13:02:32;27.80;99.90
5554;DHT22;2800;49.528;8.666;2023-07-20T13:04:58;28.60;99.90
5554;DHT22;2800;49.528;8.666;2023-07-20T13:07:34;28.60;99.90
5554;DHT22;2800;49.528;8.666;2023-07-20T13:10:01;28.50;99.90
5554;DHT22;2800;49.528;8.666;2023-07-20T13:12:28;29.20;99.90
5554;DHT22;2800;49.528;8.666;2023-07-20T13:14:55;30.40;99.90
5554;DHT22;2800;49.528;8.666;2023-07-20T13:17:21;31.40;99.90
5554;DHT22;2800;49.528;8.666;2023-07-20T13:19:47;32.60;99.90
5554;DHT22;2800;49.528;8.666;2023-07-20T13:22:12;32.90;99.90
5554;DHT22;2800;49.528;8.666;2023-07-20T13:24:40;33.10;99.90
5554;DHT22;2800;49.528;8.666;2023-07-20T13:27:06;33.50;99.90
5554;DHT22;2800;49.528;8.666;2023-07-20T13:29:31;33.20;99.90
5554;DHT22;2800;49.528;8.666;2023-07-20T13:31:58;33.30;99.90
5554;DHT22;2800;49.528;8.666;2023-07-20T13:34:23;32.50;99.90
5554;DHT22;2800;49.528;8.666;2023-07-20T13:36:49;31.90;99.90
5554;DHT22;2800;49.528;8.666;2023-07-20T13:39:14;32.40;99.90
5554;DHT22;2800;49.528;8.666;2023-07-20T13:41:40;33.40;99.90
5554;DHT22;2800;49.528;8.666;2023-07-20T13:44:06;33.00;99.90
5554;DHT22;2800;49.528;8.666;2023-07-20T13:46:31;32.50;99.90
5554;DHT22;2800;49.528;8.666;2023-07-20T13:48:57;33.10;99.90
5554;DHT22;2800;49.528;8.666;2023-07-20T13:51:22;31.50;99.90
5554;DHT22;2800;49.528;8.666;2023-07-20T13:53:48;30.90;99.90
5554;DHT22;2800;49.528;8.666;2023-07-20T13:56:14;31.50;99.90
5554;DHT22;2800;49.528;8.666;2023-07-20T13:58:39;32.20;99.90
5554;DHT22;2800;49.528;8.666;2023-07-20T14:01:05;31.50;99.90
5554;DHT22;2800;49.528;8.666;2023-07-20T14:03:30;30.60;99.90
5554;DHT22;2800;49.528;8.666;2023-07-20T14:05:56;30.20;99.90
5554;DHT22;2800;49.528;8.666;2023-07-20T14:08:22;29.30;99.90
5554;DHT22;2800;49.528;8.666;2023-07-20T14:10:48;29.60;99.90
5554;DHT22;2800;49.528;8.666;2023-07-20T14:13:13;30.90;99.90
5554;DHT22;2800;49.528;8.666;2023-07-20T14:15:39;31.60;99.90
5554;DHT22;2800;49.528;8.666;2023-07-20T14:18:05;31.90;99.90
5554;DHT22;2800;49.528;8.666;2023-07-20T14:20:30;33.00;99.90
5554;DHT22;2800;49.528;8.666;2023-07-20T14:22:56;32.50;99.90
5554;DHT22;2800;49.528;8.666;2023-07-20T14:25:21;31.00;99.90
5554;DHT22;2800;49.528;8.666;2023-07-20T14:27:47;31.80;99.90
5554;DHT22;2800;49.528;8.666;2023-07-20T14:30:13;32.50;99.90
5554;DHT22;2800;49.528;8.666;2023-07-20T14:32:38;32.80;99.90
5554;DHT22;2800;49.528;8.666;2023-07-20T14:35:04;31.10;99.90
5554;DHT22;2800;49.528;8.666;2023-07-20T14:37:30;30.10;99.90
5554;DHT22;2800;49.528;8.666;2023-07-20T14:39:55;28.90;99.90
5554;DHT22;2800;49.528;8.666;2023-07-20T14:42:21;28.40;99.90
5554;DHT22;2800;49.528;8.666;2023-07-20T14:44:46;28.30;99.90
5554;DHT22;2800;49.528;8.666;2023-07-20T14:47:12;28.50;99.90
5554;DHT22;2800;49.528;8.666;2023-07-20T14:49:38;28.60;99.90
5554;DHT22;2800;49.528;8.666;2023-07-20T14:52:04;29.00;99.90
5554;DHT22;2800;49.528;8.666;2023-07-20T14:54:29;30.30;99.90
5554;DHT22;2800;49.528;8.666;2023-07-20T14:56:55;30.60;99.90
5554;DHT22;2800;49.528;8.666;2023-07-20T14:59:21;30.50;99.90
5554;DHT22;2800;49.528;8.666;2023-07-20T15:01:47;29.60;99.90
5554;DHT22;2800;49.528;8.666;2023-07-20T15:04:13;29.30;99.90
5554;DHT22;2800;49.528;8.666;2023-07-20T15:06:39;29.20;99.90
5554;DHT22;2800;49.528;8.666;2023-07-20T15:09:05;29.60;99.90
5554;DHT22;2800;49.528;8.666;2023-07-20T15:11:30;29.90;99.90
5554;DHT22;2800;49.528;8.666;2023-07-20T15:13:56;30.20;99.90
5554;DHT22;2800;49.528;8.666;2023-07-20T15:16:23;29.50;99.90
5554;DHT22;2800;49.528;8.666;2023-07-20T15:18:49;29.10;99.90
5554;DHT22;2800;49.528;8.666;2023-07-20T15:21:15;28.30;99.90
5554;DHT22;2800;49.528;8.666;2023-07-20T15:23:41;28.00;99.90
5554;DHT22;2800;49.528;8.666;2023-07-20T15:26:06;27.80;99.90
5554;DHT22;2800;49.528;8.666;2023-07-20T15:28:32;27.60;99.90
5554;DHT22;2800;49.528;8.666;2023-07-20T15:31:02;27.90;99.90
5554;DHT22;2800;49.528;8.666;2023-07-20T15:33:28;28.40;99.90
5554;DHT22;2800;49.528;8.666;2023-07-20T15:35:54;28.80;99.90
5554;DHT22;2800;49.528;8.666;2023-07-20T15:38:19;29.00;99.90
5554;DHT22;2800;49.528;8.666;2023-07-20T15:40:46;28.80;99.90
5554;DHT22;2800;49.528;8.666;2023-07-20T15:43:11;28.90;99.90
5554;DHT22;2800;49.528;8.666;2023-07-20T15:45:37;28.60;99.90
5554;DHT22;2800;49.528;8.666;2023-07-20T15:48:03;28.40;99.90
5554;DHT22;2800;49.528;8.666;2023-07-20T15:50:28;28.40;99.90
5554;DHT22;2800;49.528;8.666;2023-07-20T15:52:54;28.30;99.90
5554;DHT22;2800;49.528;8.666;2023-07-20T15:55:19;28.00;99.90
5554;DHT22;2800;49.528;8.666;2023-07-20T15:57:45;28.20;99.90
5554;DHT22;2800;49.528;8.666;2023-07-20T16:00:10;28.20;99.90
5554;DHT22;2800;49.528;8.666;2023-07-20T16:02:36;27.80;99.90
5554;DHT22;2800;49.528;8.666;2023-07-20T16:05:03;28.10;99.90
5554;DHT22;2800;49.528;8.666;2023-07-20T16:07:28;28.20;99.90
5554;DHT22;2800;49.528;8.666;2023-07-20T16:09:55;28.20;99.90
5554;DHT22;2800;49.528;8.666;2023-07-20T16:12:23;28.10;99.90
5554;DHT22;2800;49.528;8.666;2023-07-20T16:14:52;28.00;99.90
5554;DHT22;2800;49.528;8.666;2023-07-20T16:17:17;28.00;99.90
5554;DHT22;2800;49.528;8.666;2023-07-20T16:19:43;27.90;99.90
5554;DHT22;2800;49.528;8.666;2023-07-20T16:22:08;28.10;99.90
5554;DHT22;2800;49.528;8.666;2023-07-20T16:24:37;28.20;99.90
5554;DHT22;2800;49.528;8.666;2023-07-20T16:27:03;28.40;99.90
5554;DHT22;2800;49.528;8.666;2023-07-20T16:29:30;28.40;99.90
5554;DHT22;2800;49.528;8.666;2023-07-20T16:31:55;28.30;99.90
5554;DHT22;2800;49.528;8.666;2023-07-20T16:34:21;28.10;99.90